Terminal Aerodrome Forecast
Issued by NWS Sioux Falls, SD

Home | Current Version | Previous Version | Text Only | Print | Product List | Glossary On
Versions: 1 2 3 4 5 6 7 8 9 10 11 12 13 14 15 16 17
421
FTUS43 KFSD 231729
TAFHON
TAF
KHON 231729Z 2318/2418 VRB03KT P6SM OVC012
     FM232100 13008KT P6SM OVC015
     FM240000 11008KT P6SM OVC020
     FM240400 12009KT P6SM OVC015
     FM241100 10009KT 3SM -SN OVC007
     FM241500 08010KT 1 1/2SM -SN OVC003=

USA.gov is the U.S. government's official web portal to all federal, state and local government web resources and services.